Time;durP1;ratioP1;P1;durP2;ratioP2;P2;SDS_P1;SDS_P2;PMS_P1;PMS_P2;Temp;Humidity;BMP_temperature;BMP_pressure;BME280_temperature;BME280_humidity;BME280_pressure;Samples;Min_cycle;Max_cycle;Signal;HPM_P1;HPM_P2
2021/04/13 00:02:26;;;;;;;31.15;4.50;;;34.60;23.60;;;;;;5099292;28;20448;-71
2021/04/13 00:05:09;;;;;;;20.73;4.55;;;34.50;23.30;;;;;;5094269;28;20095;-70
2021/04/13 00:07:38;;;;;;;21.92;4.13;;;34.40;23.30;;;;;;5074708;28;20110;-70
2021/04/13 00:10:15;;;;;;;18.02;3.90;;;34.40;23.10;;;;;;5097140;28;20073;-70
2021/04/13 00:12:42;;;;;;;24.73;4.30;;;34.40;23.10;;;;;;5077246;28;20203;-69
2021/04/13 00:15:16;;;;;;;21.30;4.60;;;34.40;23.40;;;;;;5079423;28;20068;-70
2021/04/13 00:17:45;;;;;;;12.90;4.18;;;34.30;23.80;;;;;;5096277;28;20465;-70
2021/04/13 00:20:31;;;;;;;24.50;4.57;;;34.30;24.00;;;;;;5094136;28;20072;-70
2021/04/13 00:22:58;;;;;;;28.13;4.60;;;34.30;24.40;;;;;;5091241;28;20476;-69
2021/04/13 00:25:39;;;;;;;34.92;5.97;;;34.30;24.60;;;;;;5093929;28;20065;-70
2021/04/13 00:28:08;;;;;;;30.35;5.70;;;34.10;25.10;;;;;;5091266;28;20096;-69
2021/04/13 00:30:48;;;;;;;31.52;6.38;;;33.90;25.30;;;;;;5097895;28;20069;-70
2021/04/13 00:33:28;;;;;;;22.02;5.32;;;33.80;25.10;;;;;;5093501;28;20132;-70
2021/04/13 00:36:11;;;;;;;24.10;5.25;;;33.70;25.10;;;;;;5079393;28;20573;-66
2021/04/13 00:38:54;;;;;;;25.73;5.10;;;33.60;25.70;;;;;;5094461;28;20121;-68
2021/04/13 00:41:30;;;;;;;29.60;5.13;;;33.50;25.00;;;;;;5092588;28;20097;-68
2021/04/13 00:44:08;;;;;;;38.50;5.50;;;33.40;24.90;;;;;;5094942;28;20082;-66
2021/04/13 00:47:05;;;;;;;32.28;5.05;;;33.30;25.10;;;;;;5093667;28;20545;-68
2021/04/13 00:49:36;;;;;;;41.90;5.47;;;33.40;25.20;;;;;;5084935;28;20092;-66
2021/04/13 00:52:09;;;;;;;35.80;5.97;;;33.30;25.40;;;;;;5073479;28;20085;-67
2021/04/13 00:54:40;;;;;;;39.72;6.00;;;33.20;25.50;;;;;;5096934;28;20072;-66
2021/04/13 00:57:24;;;;;;;34.90;8.82;;;33.20;25.80;;;;;;5077739;28;20068;-66
2021/04/13 00:59:55;;;;;;;44.70;7.65;;;33.10;25.90;;;;;;5098346;28;20563;-65
2021/04/13 01:02:28;;;;;;;31.00;6.97;;;33.00;26.20;;;;;;5093989;28;20216;-66
2021/04/13 01:05:00;;;;;;;52.30;7.07;;;32.80;26.50;;;;;;5091245;28;20068;-67
2021/04/13 01:07:32;;;;;;;37.55;7.97;;;32.60;26.80;;;;;;5094758;28;20533;-67
2021/04/13 01:10:24;;;;;;;35.17;6.50;;;32.40;27.40;;;;;;5093907;28;20129;-66
2021/04/13 01:13:04;;;;;;;27.95;5.90;;;32.20;27.70;;;;;;5078279;28;20100;-66
2021/04/13 01:15:31;;;;;;;36.58;5.80;;;32.00;28.10;;;;;;5093656;28;20087;-65
2021/04/13 01:17:57;;;;;;;36.42;5.57;;;31.90;28.20;;;;;;5091715;28;20596;-70
2021/04/13 01:20:40;;;;;;;26.02;5.53;;;31.70;28.20;;;;;;5092720;28;20106;-68
2021/04/13 01:23:21;;;;;;;47.50;5.78;;;31.50;28.50;;;;;;5087895;28;20121;-69
2021/04/13 01:25:57;;;;;;;35.80;5.60;;;31.40;29.10;;;;;;5090945;28;20068;-69
2021/04/13 01:28:28;;;;;;;38.42;5.40;;;31.30;29.70;;;;;;5096178;28;20082;-68
2021/04/13 01:31:07;;;;;;;26.02;5.53;;;31.10;30.60;;;;;;5096193;28;20081;-69
2021/04/13 01:33:48;;;;;;;30.30;5.93;;;30.90;31.30;;;;;;5095039;28;20087;-69
2021/04/13 01:36:22;;;;;;;27.75;5.03;;;30.70;31.50;;;;;;5092639;28;20068;-69
2021/04/13 01:39:11;;;;;;;31.88;5.07;;;30.60;31.50;;;;;;5092158;28;20405;-69
2021/04/13 01:41:58;;;;;;;26.65;6.80;;;30.40;31.80;;;;;;5090778;28;20107;-69
2021/04/13 01:44:47;;;;;;;27.88;5.93;;;30.30;32.30;;;;;;5097379;28;20163;-69
2021/04/13 01:47:20;;;;;;;26.70;6.03;;;30.30;32.40;;;;;;5076989;28;20073;-68
2021/04/13 01:50:01;;;;;;;27.65;5.22;;;30.00;31.80;;;;;;5097869;28;20069;-69
2021/04/13 01:52:37;;;;;;;27.23;5.40;;;29.90;32.30;;;;;;5102471;28;20073;-69
2021/04/13 01:55:14;;;;;;;24.40;5.05;;;29.70;32.00;;;;;;5098918;28;20080;-69
2021/04/13 01:58:06;;;;;;;20.67;4.80;;;29.60;32.00;;;;;;5100096;28;20159;-68
2021/04/13 02:00:53;;;;;;;29.92;5.05;;;29.50;31.50;;;;;;5099177;28;20073;-69
2021/04/13 02:03:49;;;;;;;21.80;4.63;;;29.40;31.40;;;;;;5099485;28;20551;-69
2021/04/13 02:06:23;;;;;;;24.67;4.82;;;29.30;31.20;;;;;;5098740;28;20145;-69
2021/04/13 02:08:55;;;;;;;20.80;4.13;;;29.10;31.90;;;;;;5098194;28;20076;-70
2021/04/13 02:11:27;;;;;;;18.02;4.47;;;29.10;31.70;;;;;;5094074;28;20069;-69
2021/04/13 02:14:16;;;;;;;29.70;4.80;;;28.90;31.80;;;;;;5097594;28;20084;-69
2021/04/13 02:17:08;;;;;;;26.67;4.45;;;28.80;31.80;;;;;;5094773;28;20128;-68
2021/04/13 02:19:36;;;;;;;21.05;4.35;;;28.70;31.80;;;;;;5091997;28;20061;-68
2021/04/13 02:22:08;;;;;;;27.95;4.78;;;28.70;32.00;;;;;;5089028;28;20093;-68
2021/04/13 02:24:37;;;;;;;27.13;5.68;;;28.60;32.40;;;;;;5101128;28;20125;-69
2021/04/13 02:27:29;;;;;;;23.70;4.93;;;28.60;32.20;;;;;;5099192;28;20076;-68
2021/04/13 02:30:14;;;;;;;30.08;4.95;;;28.40;30.50;;;;;;5086423;28;20122;-69
2021/04/13 02:32:49;;;;;;;37.35;5.15;;;28.40;30.90;;;;;;5092424;28;20473;-69
2021/04/13 02:35:26;;;;;;;29.15;5.15;;;28.30;30.10;;;;;;5091743;28;20099;-70
2021/04/13 02:37:55;;;;;;;39.65;5.70;;;28.20;30.00;;;;;;5094427;28;20065;-68
2021/04/13 02:40:31;;;;;;;30.35;4.65;;;28.10;30.00;;;;;;5094047;28;20076;-69
2021/04/13 02:43:08;;;;;;;30.00;5.18;;;28.00;30.00;;;;;;5095391;28;20129;-68
2021/04/13 02:45:52;;;;;;;25.08;5.10;;;28.10;30.60;;;;;;5098303;28;20151;-69
2021/04/13 02:48:28;;;;;;;27.35;6.30;;;28.10;30.80;;;;;;5094363;28;20065;-69
2021/04/13 02:50:59;;;;;;;51.08;6.80;;;27.90;30.60;;;;;;5092840;28;20075;-68
2021/04/13 02:53:40;;;;;;;45.08;6.05;;;27.90;30.80;;;;;;5093233;28;20540;-67
2021/04/13 02:56:12;;;;;;;37.60;5.97;;;27.90;30.40;;;;;;5097270;28;20147;-67
2021/04/13 02:59:05;;;;;;;17.75;5.03;;;27.70;30.80;;;;;;5092296;28;20394;-67
2021/04/13 03:01:34;;;;;;;37.70;5.30;;;27.70;30.10;;;;;;5103375;28;20101;-68
2021/04/13 03:04:05;;;;;;;32.90;5.07;;;27.60;30.20;;;;;;5099879;28;20076;-68
2021/04/13 03:06:43;;;;;;;27.48;5.90;;;27.60;30.00;;;;;;5097111;28;20088;-68
2021/04/13 03:09:12;;;;;;;37.42;5.55;;;27.60;29.80;;;;;;5093723;28;20072;-68
2021/04/13 03:11:46;;;;;;;27.73;5.20;;;27.50;29.10;;;;;;5096766;28;20076;-68
2021/04/13 03:14:15;;;;;;;23.98;4.97;;;27.40;29.10;;;;;;5094120;28;20073;-68
2021/04/13 03:16:45;;;;;;;29.33;5.05;;;27.40;28.50;;;;;;5093652;28;20069;-68
2021/04/13 03:19:16;;;;;;;28.08;5.72;;;27.30;28.70;;;;;;5100481;28;20064;-68
2021/04/13 03:21:56;;;;;;;30.02;5.57;;;27.30;28.40;;;;;;5094386;28;20505;-68
2021/04/13 03:24:33;;;;;;;43.40;6.10;;;27.20;28.20;;;;;;5097523;28;20145;-67
2021/04/13 03:27:07;;;;;;;38.28;5.68;;;27.20;28.30;;;;;;5094890;28;20076;-67
2021/04/13 03:29:46;;;;;;;38.75;6.22;;;27.10;28.30;;;;;;5097033;28;20161;-67
2021/04/13 03:32:14;;;;;;;39.75;6.28;;;27.00;28.30;;;;;;5074346;28;20099;-68
2021/04/13 03:34:45;;;;;;;34.65;5.10;;;27.00;28.40;;;;;;5097367;28;20072;-68
2021/04/13 03:37:13;;;;;;;29.50;5.18;;;27.00;28.30;;;;;;5093309;28;20091;-69
2021/04/13 03:39:43;;;;;;;35.97;5.47;;;26.90;28.60;;;;;;5089198;28;20482;-67
2021/04/13 03:42:20;;;;;;;31.08;5.05;;;26.80;28.80;;;;;;5094513;28;20097;-67
2021/04/13 03:44:49;;;;;;;36.70;5.80;;;26.80;28.90;;;;;;5092931;28;20533;-68
2021/04/13 03:47:25;;;;;;;31.27;5.03;;;26.70;29.10;;;;;;5091017;28;20111;-68
2021/04/13 03:49:52;;;;;;;35.22;5.65;;;26.60;29.40;;;;;;5076119;28;20115;-69
2021/04/13 03:52:29;;;;;;;34.70;6.25;;;26.60;29.80;;;;;;5090806;28;20083;-68
2021/04/13 03:54:56;;;;;;;37.13;5.80;;;26.60;29.70;;;;;;5096450;28;20073;-67
2021/04/13 03:57:32;;;;;;;35.70;5.13;;;26.50;29.70;;;;;;5092038;28;20468;-65
2021/04/13 04:00:00;;;;;;;33.53;5.00;;;26.50;30.00;;;;;;5094022;28;20072;-66
2021/04/13 04:02:26;;;;;;;39.85;5.35;;;26.40;30.30;;;;;;5081206;28;20565;-66
2021/04/13 04:05:10;;;;;;;38.35;5.03;;;26.30;30.40;;;;;;5093154;28;20077;-65
2021/04/13 04:07:42;;;;;;;33.25;4.60;;;26.30;31.10;;;;;;5098073;28;20072;-66
2021/04/13 04:10:45;;;;;;;33.50;4.82;;;26.30;31.50;;;;;;5094486;28;20122;-68
2021/04/13 04:13:17;;;;;;;23.80;4.90;;;26.20;31.70;;;;;;5070130;28;20479;-68
2021/04/13 04:15:47;;;;;;;24.83;5.20;;;26.20;32.10;;;;;;5095832;28;20152;-66
2021/04/13 04:18:27;;;;;;;24.10;4.70;;;26.10;32.20;;;;;;5100576;28;20075;-67
2021/04/13 04:20:55;;;;;;;28.23;4.90;;;26.00;32.20;;;;;;5096094;28;20417;-67
2021/04/13 04:23:32;;;;;;;27.95;5.75;;;26.00;32.50;;;;;;5095990;28;20080;-66
2021/04/13 04:26:05;;;;;;;26.48;4.65;;;25.90;32.80;;;;;;5094069;28;20163;-67
2021/04/13 04:28:40;;;;;;;25.38;5.22;;;25.90;32.20;;;;;;5095295;28;20087;-66
2021/04/13 04:31:35;;;;;;;28.67;4.70;;;25.80;32.20;;;;;;5091975;28;20094;-67
2021/04/13 04:34:22;;;;;;;28.55;4.57;;;25.80;32.90;;;;;;5093331;28;20069;-70
2021/04/13 04:36:55;;;;;;;22.13;5.00;;;25.70;33.30;;;;;;5050881;28;20092;-69
2021/04/13 04:39:32;;;;;;;23.42;4.32;;;25.70;33.10;;;;;;5098852;28;20545;-68
2021/04/13 04:42:07;;;;;;;32.97;5.03;;;25.60;33.40;;;;;;5090224;28;20183;-68
2021/04/13 04:44:34;;;;;;;22.85;5.32;;;25.60;33.50;;;;;;5094145;28;20091;-68
2021/04/13 04:47:01;;;;;;;18.63;3.55;;;25.60;34.60;;;;;;5099550;28;20132;-68
2021/04/13 04:49:40;;;;;;;28.70;5.45;;;25.50;32.80;;;;;;5099153;28;20064;-68
2021/04/13 04:52:07;;;;;;;34.55;6.28;;;25.50;33.10;;;;;;5098372;28;20068;-70
2021/04/13 04:54:34;;;;;;;18.95;5.30;;;25.40;32.80;;;;;;5092604;28;20129;-69
2021/04/13 04:57:01;;;;;;;27.35;5.55;;;25.40;33.30;;;;;;5096386;28;20072;-67
2021/04/13 04:59:27;;;;;;;23.15;4.85;;;25.30;34.30;;;;;;5098132;28;20068;-68
2021/04/13 05:01:54;;;;;;;24.90;5.35;;;25.30;34.60;;;;;;5093133;28;20170;-67
2021/04/13 05:04:20;;;;;;;18.73;4.65;;;25.10;33.00;;;;;;5096993;28;20077;-67
2021/04/13 05:06:47;;;;;;;20.98;5.28;;;25.10;33.70;;;;;;5095952;28;20117;-67
2021/04/13 05:09:13;;;;;;;30.90;5.20;;;25.10;34.10;;;;;;5095973;28;20077;-67
2021/04/13 05:11:40;;;;;;;26.08;5.28;;;25.10;34.20;;;;;;5096942;28;20618;-68
2021/04/13 05:14:06;;;;;;;25.13;5.80;;;25.10;34.70;;;;;;5095485;28;20096;-68
2021/04/13 05:16:33;;;;;;;15.95;4.88;;;26.30;51.50;;;;;;5099500;28;20073;-68
2021/04/13 05:18:59;;;;;;;31.95;5.95;;;24.90;39.10;;;;;;5098194;28;20588;-68
2021/04/13 05:21:26;;;;;;;29.42;8.52;;;24.90;40.30;;;;;;5102089;28;20118;-68
2021/04/13 05:23:52;;;;;;;27.10;7.85;;;24.90;40.60;;;;;;5099747;28;20069;-67
2021/04/13 05:26:19;;;;;;;31.60;6.95;;;24.90;41.20;;;;;;5100602;28;20076;-66
2021/04/13 05:28:45;;;;;;;24.83;5.88;;;24.80;43.70;;;;;;5082093;28;20073;-67
2021/04/13 05:31:12;;;;;;;19.75;5.30;;;24.90;42.40;;;;;;5099213;28;20205;-67
2021/04/13 05:33:41;;;;;;;21.90;5.45;;;24.80;43.00;;;;;;5096116;28;20069;-68
2021/04/13 05:36:08;;;;;;;21.52;5.60;;;24.90;45.30;;;;;;5097229;28;20084;-67
2021/04/13 05:38:41;;;;;;;24.60;5.53;;;24.60;45.60;;;;;;5096454;28;20509;-72
2021/04/13 05:41:11;;;;;;;22.83;5.60;;;24.50;46.10;;;;;;5098667;28;20179;-66
2021/04/13 05:43:38;;;;;;;21.52;5.32;;;24.40;47.10;;;;;;5096312;28;20073;-67
2021/04/13 05:46:05;;;;;;;25.70;5.55;;;24.30;47.80;;;;;;5097628;28;20080;-67
2021/04/13 05:48:32;;;;;;;28.77;5.88;;;24.30;49.00;;;;;;5094664;28;20137;-69
2021/04/13 05:51:00;;;;;;;24.02;6.55;;;24.20;50.50;;;;;;5100661;28;20065;-68
2021/04/13 05:53:26;;;;;;;33.78;5.10;;;24.20;51.10;;;;;;5082637;28;20076;-68
2021/04/13 05:55:54;;;;;;;21.10;5.63;;;24.10;51.80;;;;;;5098037;28;20069;-68
2021/04/13 05:58:49;;;;;;;23.10;5.82;;;24.10;52.20;;;;;;5100110;28;20102;-68
2021/04/13 06:01:18;;;;;;;28.85;5.43;;;24.00;52.50;;;;;;5096587;28;20131;-67
2021/04/13 06:03:46;;;;;;;23.48;5.60;;;24.00;53.10;;;;;;5100037;28;20087;-67
2021/04/13 06:06:15;;;;;;;22.05;5.75;;;23.90;53.30;;;;;;5100370;28;20064;-68
2021/04/13 06:08:41;;;;;;;34.10;5.88;;;23.90;53.50;;;;;;5102832;28;20080;-67
2021/04/13 06:11:14;;;;;;;29.08;6.68;;;24.00;53.40;;;;;;5103541;28;20532;-68
2021/04/13 06:13:41;;;;;;;24.75;6.05;;;23.90;53.10;;;;;;5101354;28;20112;-67
2021/04/13 06:16:10;;;;;;;28.85;5.80;;;23.90;53.80;;;;;;5091735;28;20080;-68
2021/04/13 06:18:36;;;;;;;27.75;8.80;;;23.30;59.30;;;;;;5077068;28;20077;-67
2021/04/13 06:21:03;;;;;;;24.45;7.00;;;23.80;54.00;;;;;;5095873;28;20100;-68
2021/04/13 06:23:30;;;;;;;21.85;6.30;;;23.80;53.80;;;;;;5095762;28;20155;-68
2021/04/13 06:25:56;;;;;;;25.75;6.55;;;23.70;54.10;;;;;;5097626;28;20107;-68
2021/04/13 06:28:25;;;;;;;32.13;7.53;;;23.60;54.30;;;;;;5094325;28;20122;-68
2021/04/13 06:30:52;;;;;;;24.42;6.07;;;23.50;54.60;;;;;;5093642;28;20155;-67
2021/04/13 06:33:19;;;;;;;26.17;5.78;;;23.40;54.90;;;;;;5094608;28;20068;-67
2021/04/13 06:35:46;;;;;;;26.05;5.28;;;23.40;55.20;;;;;;5094740;28;20100;-67
2021/04/13 06:38:22;;;;;;;25.92;5.60;;;23.30;56.00;;;;;;5098409;28;20512;-66
2021/04/13 06:41:09;;;;;;;24.67;5.95;;;23.30;56.30;;;;;;5081387;28;20091;-67
2021/04/13 06:43:54;;;;;;;27.58;5.85;;;23.30;56.30;;;;;;5075290;28;20108;-67
2021/04/13 06:46:21;;;;;;;24.60;5.32;;;23.20;56.20;;;;;;5097922;28;20076;-66
2021/04/13 06:48:50;;;;;;;31.38;6.20;;;23.30;55.20;;;;;;5098037;28;20076;-67
2021/04/13 06:51:26;;;;;;;33.22;6.13;;;23.20;55.40;;;;;;5093099;28;20156;-67
2021/04/13 06:54:09;;;;;;;23.85;6.43;;;23.10;56.10;;;;;;5097363;28;20068;-67
2021/04/13 06:56:43;;;;;;;30.92;6.95;;;23.00;57.40;;;;;;5091485;28;20258;-66
2021/04/13 06:59:38;;;;;;;26.75;5.78;;;22.90;57.90;;;;;;5090466;28;20064;-66
2021/04/13 07:02:21;;;;;;;29.90;6.85;;;22.90;58.20;;;;;;5094656;28;20478;-67
2021/04/13 07:04:56;;;;;;;33.78;7.20;;;22.80;58.80;;;;;;5093887;28;20065;-67
2021/04/13 07:07:43;;;;;;;37.25;7.13;;;22.80;59.00;;;;;;5092374;28;20517;-68
2021/04/13 07:10:20;;;;;;;33.53;7.05;;;22.10;62.00;;;;;;5098638;28;20117;-68
2021/04/13 07:13:11;;;;;;;35.55;6.75;;;22.70;66.40;;;;;;5025468;28;1518878;-68
2021/04/13 07:15:50;;;;;;;25.17;5.93;;;22.00;81.00;;;;;;5061455;28;20089;-68
2021/04/13 07:18:19;;;;;;;31.90;7.47;;;22.50;70.70;;;;;;5061926;28;20533;-67
2021/04/13 07:21:06;;;;;;;34.70;7.63;;;22.60;71.40;;;;;;5060079;28;20119;-68
2021/04/13 07:23:56;;;;;;;32.38;7.22;;;22.50;73.70;;;;;;5060002;28;20522;-67
2021/04/13 07:26:31;;;;;;;49.38;10.20;;;22.50;75.60;;;;;;5058566;28;20069;-68
2021/04/13 07:29:12;;;;;;;29.38;7.68;;;22.50;77.50;;;;;;5060044;28;20076;-68
2021/04/13 07:31:52;;;;;;;41.75;8.65;;;22.30;79.50;;;;;;5059087;28;20069;-68
2021/04/13 07:34:20;;;;;;;37.97;8.90;;;22.40;81.50;;;;;;5060040;28;20110;-68
2021/04/13 07:37:10;;;;;;;30.75;7.57;;;22.30;82.00;;;;;;5060141;28;21225;-68
2021/04/13 07:39:40;;;;;;;33.10;7.88;;;22.30;83.50;;;;;;5058136;28;20081;-67
2021/04/13 07:42:20;;;;;;;39.38;9.10;;;22.20;84.40;;;;;;5054433;28;20097;-67
2021/04/13 07:45:01;;;;;;;40.75;8.75;;;22.30;85.40;;;;;;5057891;28;20093;-67
2021/04/13 07:47:52;;;;;;;41.75;9.82;;;22.20;85.50;;;;;;5058093;28;20081;-68
2021/04/13 07:50:35;;;;;;;42.83;8.80;;;22.10;85.50;;;;;;5056363;28;20723;-67
2021/04/13 07:53:11;;;;;;;40.97;7.82;;;21.90;86.30;;;;;;5058769;28;20069;-67
2021/04/13 07:55:55;;;;;;;40.15;8.65;;;21.80;86.50;;;;;;5059470;28;20077;-68
2021/04/13 07:58:44;;;;;;;34.38;7.30;;;21.80;86.50;;;;;;5060733;28;20081;-68
2021/04/13 08:01:10;;;;;;;36.60;7.32;;;21.80;86.00;;;;;;5061927;28;20120;-68
2021/04/13 08:03:37;;;;;;;40.58;8.02;;;21.80;84.30;;;;;;5065060;28;20066;-68
2021/04/13 08:06:24;;;;;;;33.05;7.25;;;21.70;83.60;;;;;;5066308;28;20076;-68
2021/04/13 08:09:26;;;;;;;32.67;6.57;;;21.80;84.00;;;;;;5061221;28;20386;-68
2021/04/13 08:12:21;;;;;;;44.00;7.88;;;21.70;83.60;;;;;;5065986;28;20472;-66
2021/04/13 08:14:56;;;;;;;29.13;7.13;;;21.80;83.30;;;;;;5096210;28;20071;-67
2021/04/13 08:17:24;;;;;;;30.83;7.72;;;21.60;84.00;;;;;;5099225;28;20071;-68
2021/04/13 08:20:10;;;;;;;32.13;8.00;;;21.60;85.00;;;;;;5093728;28;20073;-68
2021/04/13 08:22:55;;;;;;;37.22;8.32;;;21.60;84.70;;;;;;5094606;28;20464;-67
2021/04/13 08:25:58;;;;;;;37.08;8.45;;;21.50;90.30;;;;;;5091522;28;20129;-67
2021/04/13 08:28:36;;;;;;;40.25;7.90;;;21.50;84.30;;;;;;5046561;28;20131;-68
2021/04/13 08:34:38;;;;;;;37.83;7.80;;;21.50;84.50;;;;;;5094246;28;20162;-68
2021/04/13 08:37:30;;;;;;;33.88;6.68;;;21.40;84.50;;;;;;5095257;28;20076;-67
2021/04/13 08:40:07;;;;;;;35.08;7.15;;;21.30;85.40;;;;;;5096148;28;20073;-67
2021/04/13 08:42:45;;;;;;;29.92;7.03;;;21.20;86.20;;;;;;5092022;28;20100;-68
2021/04/13 08:45:37;;;;;;;30.98;7.20;;;21.20;85.90;;;;;;5094370;28;20105;-68
2021/04/13 08:48:33;;;;;;;40.22;8.13;;;21.10;86.50;;;;;;5095652;28;20155;-68
2021/04/13 08:51:31;;;;;;;33.97;7.32;;;21.10;85.80;;;;;;5097151;28;20073;-68
2021/04/13 08:54:32;;;;;;;31.17;7.28;;;21.20;85.30;;;;;;5094330;28;20079;-67
2021/04/13 08:57:17;;;;;;;31.45;7.68;;;21.10;85.40;;;;;;5081433;28;20088;-67
2021/04/13 08:59:57;;;;;;;32.47;7.65;;;21.00;86.20;;;;;;5096241;28;20071;-67
2021/04/13 09:02:28;;;;;;;29.95;7.05;;;21.10;86.00;;;;;;5096042;28;20871;-69
2021/04/13 09:05:21;;;;;;;31.15;6.53;;;21.00;85.30;;;;;;5093171;28;20068;-67
2021/04/13 09:07:47;;;;;;;34.97;7.68;;;21.00;86.20;;;;;;5099464;28;20135;-67
2021/04/13 09:10:26;;;;;;;33.38;7.00;;;20.90;87.00;;;;;;5094858;28;20420;-67
2021/04/13 09:13:11;;;;;;;30.15;7.03;;;20.90;86.40;;;;;;5093703;28;20108;-68
2021/04/13 09:15:56;;;;;;;29.88;6.70;;;20.80;86.60;;;;;;5097331;28;20139;-67
2021/04/13 09:18:34;;;;;;;24.92;6.85;;;20.80;86.70;;;;;;5097500;28;20427;-68
2021/04/13 09:21:12;;;;;;;36.10;7.57;;;20.70;87.30;;;;;;5092605;28;20093;-67
2021/04/13 09:24:00;;;;;;;40.17;7.63;;;20.70;86.60;;;;;;5094632;28;20171;-67
2021/04/13 09:27:02;;;;;;;26.95;6.82;;;20.70;86.70;;;;;;5093122;28;20085;-67
2021/04/13 09:29:44;;;;;;;31.15;7.10;;;20.60;88.20;;;;;;5095846;28;20155;-68
2021/04/13 09:32:37;;;;;;;35.08;7.18;;;20.60;87.40;;;;;;5094594;28;20088;-68
2021/04/13 09:35:06;;;;;;;33.75;7.40;;;20.50;86.20;;;;;;5085092;28;20081;-67
2021/04/13 09:38:27;;;;;;;36.67;7.93;;;20.50;86.60;;;;;;5088996;28;20077;-67
2021/04/13 09:41:16;;;;;;;38.85;8.38;;;20.50;86.80;;;;;;4995482;28;20523;-67
2021/04/13 09:43:48;;;;;;;32.28;7.25;;;20.50;87.30;;;;;;5098560;28;20512;-67
2021/04/13 09:46:46;;;;;;;32.97;6.85;;;20.40;88.10;;;;;;5094083;28;20077;-67
2021/04/13 09:49:18;;;;;;;36.88;6.72;;;20.30;89.60;;;;;;5093617;28;20105;-67
2021/04/13 09:52:07;;;;;;;37.38;7.00;;;20.30;90.70;;;;;;5098682;28;20072;-67
2021/04/13 09:54:42;;;;;;;37.08;6.68;;;20.30;90.50;;;;;;5092971;28;20405;-67
2021/04/13 09:57:22;;;;;;;34.35;6.85;;;20.20;91.10;;;;;;5096276;28;20072;-67
2021/04/13 10:00:07;;;;;;;35.08;6.57;;;20.20;91.10;;;;;;5097222;28;20068;-68
2021/04/13 10:03:04;;;;;;;35.13;7.50;;;20.20;92.00;;;;;;5093519;28;20097;-68
2021/04/13 10:05:34;;;;;;;37.00;7.90;;;20.20;91.60;;;;;;5091604;28;20077;-68
2021/04/13 10:08:16;;;;;;;32.30;7.00;;;20.30;91.50;;;;;;5098551;28;20056;-67
2021/04/13 10:11:11;;;;;;;27.80;6.60;;;20.20;91.40;;;;;;5096825;28;20080;-67
2021/04/13 10:14:19;;;;;;;33.85;6.93;;;20.10;91.90;;;;;;5097730;28;20124;-68
2021/04/13 10:17:01;;;;;;;30.08;7.30;;;20.10;92.10;;;;;;5096550;28;20413;-68
2021/04/13 10:19:42;;;;;;;32.03;6.85;;;20.10;91.90;;;;;;5090941;28;20214;-67
2021/04/13 10:22:41;;;;;;;38.78;7.38;;;20.10;91.70;;;;;;5097331;28;20088;-68
2021/04/13 10:25:16;;;;;;;35.03;7.38;;;20.10;92.30;;;;;;5094158;28;20064;-68
2021/04/13 10:28:03;;;;;;;27.90;6.90;;;20.00;92.70;;;;;;5093092;28;20074;-71
2021/04/13 10:30:39;;;;;;;33.85;7.35;;;20.10;92.30;;;;;;5096282;28;20117;-67
2021/04/13 10:33:32;;;;;;;34.03;7.00;;;20.10;91.80;;;;;;5098290;28;20094;-68
2021/04/13 10:36:08;;;;;;;28.08;6.25;;;20.20;91.60;;;;;;5099003;28;20068;-67
2021/04/13 10:39:28;;;;;;;27.85;6.22;;;20.00;90.90;;;;;;5093510;28;20064;-68
2021/04/13 10:42:00;;;;;;;29.52;6.65;;;19.90;90.80;;;;;;5013219;28;20093;-67
2021/04/13 10:44:43;;;;;;;34.63;6.40;;;19.90;91.00;;;;;;5094637;28;20100;-68
2021/04/13 10:47:28;;;;;;;29.90;7.10;;;19.90;91.00;;;;;;5090744;28;20144;-68
2021/04/13 10:50:09;;;;;;;28.50;6.50;;;20.00;90.20;;;;;;5098220;28;20072;-68
2021/04/13 10:52:48;;;;;;;30.35;6.45;;;19.70;90.50;;;;;;5098272;28;20064;-68
2021/04/13 10:55:28;;;;;;;35.97;7.45;;;19.70;90.90;;;;;;5096172;28;20080;-68
2021/04/13 10:58:04;;;;;;;35.65;7.40;;;19.70;90.60;;;;;;5095090;28;20087;-68
2021/04/13 11:00:40;;;;;;;29.13;6.60;;;19.70;90.00;;;;;;5094129;28;20147;-68
2021/04/13 11:03:44;;;;;;;33.50;7.20;;;19.60;90.10;;;;;;5098352;28;20475;-68
2021/04/13 11:06:40;;;;;;;27.30;5.97;;;19.60;90.50;;;;;;5096942;28;20103;-68
2021/04/13 11:09:07;;;;;;;27.80;7.22;;;19.60;90.80;;;;;;5098627;28;20072;-68
2021/04/13 11:11:33;;;;;;;;;;;19.60;90.50;;;;;;5097403;28;20136;-68
2021/04/13 11:14:33;;;;;;;37.92;7.15;;;19.50;90.40;;;;;;5095016;28;19968;-67
2021/04/13 11:17:34;;;;;;;35.30;6.40;;;19.50;90.30;;;;;;5098858;28;20130;-67
2021/04/13 11:20:23;;;;;;;36.92;6.75;;;19.40;90.40;;;;;;5098464;28;20100;-68
2021/04/13 11:23:14;;;;;;;26.90;6.45;;;19.40;91.00;;;;;;5094794;28;20085;-68
2021/04/13 11:25:47;;;;;;;38.75;7.40;;;19.40;90.80;;;;;;5093289;28;20068;-68
2021/04/13 11:28:32;;;;;;;23.25;5.80;;;19.40;90.80;;;;;;5095157;28;20525;-68
2021/04/13 11:31:19;;;;;;;30.58;6.70;;;19.30;90.70;;;;;;5097918;28;20599;-68
2021/04/13 11:34:10;;;;;;;32.33;6.80;;;19.30;91.00;;;;;;5093714;28;20129;-68
2021/04/13 11:37:08;;;;;;;28.58;7.05;;;19.30;90.90;;;;;;5089884;28;20112;-68
2021/04/13 11:40:05;;;;;;;29.48;6.72;;;19.30;90.50;;;;;;5076973;28;20087;-67
2021/04/13 11:42:38;;;;;;;29.27;6.88;;;19.30;90.50;;;;;;5091756;28;20179;-67
2021/04/13 11:45:32;;;;;;;34.70;8.13;;;19.30;90.20;;;;;;5093914;28;20070;-66
2021/04/13 11:48:14;;;;;;;32.67;6.68;;;19.30;90.20;;;;;;5090838;28;20065;-67
2021/04/13 11:51:03;;;;;;;34.20;6.93;;;19.20;90.10;;;;;;5096390;28;20083;-67
2021/04/13 11:53:41;;;;;;;23.40;6.18;;;19.10;90.00;;;;;;5091857;28;20060;-67
2021/04/13 11:56:23;;;;;;;31.02;6.93;;;19.10;90.30;;;;;;5092963;28;20525;-67
2021/04/13 11:59:18;;;;;;;30.50;6.70;;;19.10;90.50;;;;;;5091650;28;20084;-67
2021/04/13 12:01:46;;;;;;;36.42;8.02;;;19.10;90.20;;;;;;5094125;28;20093;-66
2021/04/13 12:04:26;;;;;;;30.85;7.20;;;19.20;90.10;;;;;;5094543;28;20088;-67
2021/04/13 12:07:05;;;;;;;25.90;6.70;;;19.20;90.30;;;;;;5096816;28;20125;-67
2021/04/13 12:09:45;;;;;;;28.45;6.65;;;19.20;89.50;;;;;;5089397;28;20076;-67
2021/04/13 12:12:45;;;;;;;30.95;7.68;;;19.10;89.40;;;;;;5091239;28;20104;-67
2021/04/13 12:15:11;;;;;;;38.65;8.82;;;19.00;90.10;;;;;;5046833;28;20130;-66
2021/04/13 12:17:43;;;;;;;30.35;7.53;;;19.00;90.50;;;;;;5091021;28;20416;-67
2021/04/13 12:22:54;;;;;;;33.90;6.78;;;18.90;90.10;;;;;;5095220;28;20452;-67
2021/04/13 12:25:53;;;;;;;32.55;7.05;;;18.90;90.50;;;;;;5095427;28;20076;-67
2021/04/13 12:28:42;;;;;;;28.88;6.72;;;18.80;91.00;;;;;;5056352;28;20659;-67
2021/04/13 12:31:24;;;;;;;36.97;8.15;;;19.30;95.70;;;;;;5076728;28;20144;-67
2021/04/13 12:34:01;;;;;;;35.25;7.38;;;18.90;90.20;;;;;;5092439;28;20149;-67
2021/04/13 12:36:51;;;;;;;29.52;7.30;;;19.00;90.00;;;;;;5095854;28;20087;-67
2021/04/13 12:39:48;;;;;;;36.03;7.30;;;19.00;89.60;;;;;;5072879;28;20429;-68
2021/04/13 12:42:30;;;;;;;30.52;6.60;;;19.00;89.10;;;;;;5092115;28;20097;-67
2021/04/13 12:45:24;;;;;;;27.55;6.30;;;18.90;89.20;;;;;;5089349;28;20099;-67
2021/04/13 12:48:17;;;;;;;35.00;6.10;;;18.90;90.70;;;;;;5100215;28;20122;-67
2021/04/13 12:51:10;;;;;;;27.77;6.38;;;19.20;97.40;;;;;;5091667;28;20056;-67
2021/04/13 12:53:36;;;;;;;36.47;7.05;;;18.70;90.00;;;;;;5083488;28;20483;-67
2021/04/13 12:56:07;;;;;;;31.40;6.72;;;;;;;;;;5095612;28;20020;-68
2021/04/13 12:58:37;;;;;;;29.83;6.93;;;18.70;89.30;;;;;;5092105;28;20020;-68
2021/04/13 13:01:06;;;;;;;36.35;7.68;;;18.70;90.00;;;;;;5091563;28;20262;-68
2021/04/13 13:03:35;;;;;;;32.38;6.60;;;18.60;90.70;;;;;;5090253;28;20197;-67
2021/04/13 13:06:23;;;;;;;32.05;7.05;;;18.50;91.00;;;;;;5091281;28;20076;-67
2021/04/13 13:09:18;;;;;;;;;;;18.50;91.40;;;;;;5093775;28;20110;-68
2021/04/13 13:11:45;;;;;;;32.33;5.95;;;18.50;91.10;;;;;;5076567;28;19956;-68
2021/04/13 13:14:14;;;;;;;42.15;7.28;;;18.50;90.70;;;;;;5091635;28;20083;-67
2021/04/13 13:16:42;;;;;;;32.75;6.30;;;18.40;90.30;;;;;;5088886;28;20443;-67
2021/04/13 13:19:24;;;;;;;30.40;6.63;;;18.20;96.20;;;;;;5091659;28;20073;-67
2021/04/13 13:21:53;;;;;;;34.47;7.18;;;18.30;90.20;;;;;;5092712;28;20146;-68
2021/04/13 13:24:26;;;;;;;26.45;6.07;;;18.40;89.60;;;;;;5089604;28;20073;-67
2021/04/13 13:26:53;;;;;;;31.77;6.60;;;18.30;89.70;;;;;;5092992;28;20590;-68
2021/04/13 13:29:19;;;;;;;29.02;5.97;;;18.30;88.60;;;;;;5089630;28;20118;-67
2021/04/13 13:31:48;;;;;;;42.42;6.88;;;18.40;90.00;;;;;;5092344;28;20461;-68
2021/04/13 13:34:17;;;;;;;33.05;6.85;;;18.30;88.90;;;;;;5093401;28;20065;-68
2021/04/13 13:36:47;;;;;;;36.35;7.53;;;18.30;88.60;;;;;;5085948;28;20101;-68
2021/04/13 13:39:29;;;;;;;41.65;7.57;;;18.30;88.70;;;;;;5093101;28;20089;-68
2021/04/13 13:42:01;;;;;;;38.33;8.35;;;18.40;88.10;;;;;;5093077;28;20097;-68